createdAt,value
2019-06-08T00:01:31.824Z,100867.70
2019-06-08T00:04:01.872Z,100877.00
2019-06-08T00:06:31.860Z,100893.26
2019-06-08T00:09:01.860Z,100904.38
2019-06-08T00:11:31.894Z,100907.44
2019-06-08T00:14:01.919Z,100927.38
2019-06-08T00:16:31.983Z,100940.81
2019-06-08T00:19:01.901Z,100955.67
2019-06-08T00:21:31.939Z,100975.17
2019-06-08T00:24:02.172Z,100973.47
2019-06-08T00:26:32.074Z,100976.34
2019-06-08T00:29:02.298Z,100969.17
2019-06-08T00:31:32.071Z,100970.39
2019-06-08T00:34:02.040Z,100977.04
2019-06-08T00:36:32.182Z,100968.19
2019-06-08T00:39:02.085Z,100973.66
2019-06-08T00:41:32.116Z,100976.73
2019-06-08T00:44:02.129Z,100978.54
2019-06-08T00:46:32.116Z,100979.91
2019-06-08T00:49:02.131Z,100987.05
2019-06-08T00:51:32.184Z,100970.63
2019-06-08T00:54:02.295Z,100973.06
2019-06-08T00:56:32.625Z,100969.31
2019-06-08T00:59:02.250Z,100953.81
2019-06-08T01:01:32.240Z,100967.73
2019-06-08T01:04:02.289Z,100977.36
2019-06-08T01:06:32.270Z,100982.00
2019-06-08T01:09:02.290Z,100987.52
2019-06-08T01:11:32.307Z,100984.25
2019-06-08T01:14:02.294Z,100974.41
2019-06-08T01:16:32.329Z,100978.97
2019-06-08T01:19:02.700Z,100982.95
2019-06-08T01:21:32.349Z,100987.80
2019-06-08T01:24:01.395Z,100995.31
2019-06-08T01:26:30.668Z,100997.37
2019-06-08T01:28:59.723Z,100993.27
2019-06-08T01:31:30.445Z,100988.97
2019-06-08T01:33:59.588Z,100989.84
2019-06-08T01:36:29.143Z,100970.88
2019-06-08T01:38:58.330Z,100988.17
2019-06-08T01:41:27.805Z,100985.97
2019-06-08T01:43:56.939Z,100995.73
2019-06-08T01:46:25.980Z,101003.27
2019-06-08T01:48:54.927Z,100994.06
2019-06-08T01:51:24.756Z,101000.27
2019-06-08T01:53:54.047Z,101004.21
2019-06-08T01:56:23.084Z,101011.23
2019-06-08T01:58:52.117Z,100987.00
2019-06-08T02:01:21.143Z,100946.83
2019-06-08T02:03:50.180Z,100962.20
2019-06-08T02:06:19.211Z,100974.55
2019-06-08T02:08:48.253Z,100938.86
2019-06-08T02:11:17.285Z,100924.16
2019-06-08T02:13:46.220Z,100913.98
2019-06-08T02:16:15.261Z,100924.73
2019-06-08T02:18:50.911Z,100938.22
2019-06-08T02:21:15.030Z,100944.37
2019-06-08T02:23:44.095Z,100966.13
2019-06-08T02:26:13.497Z,100977.55
2019-06-08T02:28:42.507Z,100961.88
2019-06-08T02:31:11.541Z,100984.31
2019-06-08T02:33:40.613Z,100968.94
2019-06-08T02:36:09.591Z,100938.37
2019-06-08T02:38:39.608Z,100919.24
2019-06-08T02:41:10.065Z,100934.00
2019-06-08T02:43:40.275Z,100928.81
2019-06-08T02:46:09.458Z,100939.47
2019-06-08T02:49:01.882Z,100943.91
2019-06-08T02:51:09.542Z,100943.57
2019-06-08T02:53:38.914Z,100929.95
2019-06-08T02:56:09.387Z,100937.80
2019-06-08T02:58:41.670Z,100917.50
2019-06-08T03:01:10.992Z,100942.58
2019-06-08T03:03:40.781Z,100949.08
2019-06-08T03:06:09.851Z,100951.50
2019-06-08T03:08:41.559Z,100953.73
2019-06-08T03:11:09.785Z,100955.60
2019-06-08T03:13:41.981Z,100951.54
2019-06-08T03:16:10.627Z,100971.69
2019-06-08T03:18:40.180Z,100970.52
2019-06-08T03:21:10.902Z,100973.74
2019-06-08T03:23:41.526Z,100965.92
2019-06-08T03:26:10.725Z,100971.30
2019-06-08T03:28:41.468Z,100973.84
2019-06-08T03:31:10.533Z,100981.35
2019-06-08T03:33:49.109Z,100981.72
2019-06-08T03:36:10.343Z,100981.05
2019-06-08T03:38:40.143Z,100972.16
2019-06-08T03:41:10.199Z,100983.00
2019-06-08T03:43:40.737Z,100979.73
2019-06-08T03:46:09.888Z,100974.33
2019-06-08T03:48:40.043Z,100973.16
2019-06-08T03:51:09.898Z,100963.91
2019-06-08T03:53:40.034Z,100966.48
2019-06-08T03:56:09.654Z,100964.74
2019-06-08T03:58:40.529Z,100961.20
2019-06-08T04:01:09.775Z,100976.23
2019-06-08T04:03:39.939Z,100973.31
2019-06-08T04:06:09.894Z,100960.18
2019-06-08T04:08:40.892Z,100964.80
2019-06-08T04:11:09.673Z,100960.70
2019-06-08T04:13:39.922Z,100954.56
2019-06-08T04:16:09.016Z,100954.38
2019-06-08T04:18:38.253Z,100964.12
2019-06-08T04:21:08.700Z,100949.75
2019-06-08T04:23:38.051Z,100950.87
2019-06-08T04:26:07.052Z,100942.80
2019-06-08T04:28:35.941Z,100946.27
2019-06-08T04:31:04.955Z,100969.95
2019-06-08T04:33:34.112Z,100969.76
2019-06-08T04:36:04.106Z,100976.59
2019-06-08T04:38:33.126Z,100955.72
2019-06-08T04:41:02.174Z,100953.71
2019-06-08T04:43:31.105Z,100957.35
2019-06-08T04:46:00.397Z,100958.48
2019-06-08T04:48:29.434Z,100945.25
2019-06-08T04:50:58.808Z,100940.31
2019-06-08T04:53:28.176Z,100965.82
2019-06-08T04:55:57.128Z,100963.34
2019-06-08T04:58:26.402Z,100964.97
2019-06-08T05:00:55.432Z,100960.31
2019-06-08T05:03:24.629Z,100957.63
2019-06-08T05:05:53.655Z,100962.72
2019-06-08T05:08:22.867Z,100969.94
2019-06-08T05:10:51.909Z,100983.41
2019-06-08T05:13:20.913Z,100988.15
2019-06-08T05:15:50.411Z,100998.66
2019-06-08T05:18:19.392Z,100995.59
2019-06-08T05:20:49.862Z,100987.11
2019-06-08T05:23:19.501Z,100996.37
2019-06-08T05:25:49.361Z,100996.60
2019-06-08T05:28:18.404Z,100993.08
2019-06-08T05:30:47.716Z,100991.27
2019-06-08T05:33:16.765Z,100989.16
2019-06-08T05:35:45.945Z,100987.30
2019-06-08T05:38:14.971Z,100976.98
2019-06-08T05:40:44.014Z,100976.05
2019-06-08T05:43:13.034Z,100986.69
2019-06-08T05:45:42.073Z,100996.95
2019-06-08T05:48:11.073Z,100995.27
2019-06-08T05:50:54.926Z,100990.59
2019-06-08T05:53:10.848Z,100997.88
2019-06-08T05:55:39.889Z,101000.14
2019-06-08T05:58:08.924Z,101007.66
2019-06-08T06:00:37.932Z,101006.16
2019-06-08T06:03:06.975Z,101023.83
2019-06-08T06:05:36.001Z,101028.84
2019-06-08T06:08:18.069Z,101034.87
2019-06-08T06:10:35.830Z,101042.45
2019-06-08T06:13:04.933Z,101044.50
2019-06-08T06:15:34.902Z,101053.17
2019-06-08T06:18:04.938Z,101037.53
2019-06-08T06:20:34.946Z,101038.78
2019-06-08T06:23:04.954Z,101049.58
2019-06-08T06:25:35.022Z,101045.17
2019-06-08T06:28:06.385Z,101041.86
2019-06-08T06:30:35.739Z,101039.64
2019-06-08T06:33:05.127Z,101042.16
2019-06-08T06:35:35.048Z,101039.50
2019-06-08T06:38:05.085Z,101041.55
2019-06-08T06:40:35.109Z,101047.03
2019-06-08T06:43:05.289Z,101047.93
2019-06-08T06:45:35.131Z,101048.31
2019-06-08T06:48:05.305Z,101052.92
2019-06-08T06:50:35.153Z,101047.75
2019-06-08T06:53:05.049Z,101045.72
2019-06-08T06:55:35.091Z,101062.28
2019-06-08T06:58:04.096Z,101078.30
2019-06-08T07:00:33.330Z,101076.02
2019-06-08T07:03:02.566Z,101078.23
2019-06-08T07:05:31.575Z,101076.33
2019-06-08T07:08:00.605Z,101079.73
2019-06-08T07:10:29.629Z,101081.33
2019-06-08T07:12:58.727Z,101079.41
2019-06-08T07:15:28.701Z,101094.16
2019-06-08T07:17:58.764Z,101095.67
2019-06-08T07:20:27.717Z,101080.70
2019-06-08T07:22:56.785Z,101080.58
2019-06-08T07:25:27.676Z,101084.72
2019-06-08T07:27:56.681Z,101095.88
2019-06-08T07:30:25.768Z,101096.69
2019-06-08T07:32:55.155Z,101106.77
2019-06-08T07:35:24.205Z,101102.92
2019-06-08T07:37:53.718Z,101107.87
2019-06-08T07:40:23.049Z,101112.33
2019-06-08T07:42:53.356Z,101114.80
2019-06-08T07:45:22.826Z,101123.02
2019-06-08T07:47:52.050Z,101117.60
2019-06-08T07:50:21.048Z,101116.80
2019-06-08T07:52:51.303Z,101115.21
2019-06-08T07:55:20.827Z,101118.37
2019-06-08T07:57:50.605Z,101117.22
2019-06-08T08:00:21.294Z,101119.22
2019-06-08T08:02:50.289Z,101124.00
2019-06-08T08:05:19.304Z,101116.56
2019-06-08T08:07:48.381Z,101123.14
2019-06-08T08:10:17.782Z,101112.33
2019-06-08T08:12:49.110Z,101125.11
2019-06-08T08:15:17.944Z,101121.25
2019-06-08T08:17:46.951Z,101135.65
2019-06-08T08:20:15.968Z,101140.39
2019-06-08T08:22:44.992Z,101138.89
2019-06-08T08:25:14.149Z,101137.52
2019-06-08T08:27:43.172Z,101133.86
2019-06-08T08:30:12.980Z,101131.20
2019-06-08T08:32:42.006Z,101139.80
2019-06-08T08:35:12.109Z,101129.85
2019-06-08T08:37:41.153Z,101135.11
2019-06-08T08:40:10.656Z,101132.86
2019-06-08T08:42:39.684Z,101132.00
2019-06-08T08:45:09.191Z,101138.70
2019-06-08T08:47:38.902Z,101141.23
2019-06-08T08:50:09.001Z,101148.94
2019-06-08T08:52:40.758Z,101155.40
2019-06-08T08:55:09.188Z,101152.56
2019-06-08T08:57:41.457Z,101154.78
2019-06-08T09:00:09.659Z,101157.76
2019-06-08T09:02:38.712Z,101157.76
2019-06-08T09:05:08.587Z,101157.80
2019-06-08T09:07:38.598Z,101157.35
2019-06-08T09:10:11.224Z,101164.52
2019-06-08T09:12:40.512Z,101172.69
2019-06-08T09:15:09.954Z,101181.78
2019-06-08T09:17:39.075Z,101187.66
2019-06-08T09:20:13.067Z,101195.05
2019-06-08T09:22:52.493Z,101198.06
2019-06-08T09:25:13.458Z,101195.70
2019-06-08T09:27:41.326Z,101204.53
2019-06-08T09:30:10.946Z,101203.83
2019-06-08T09:32:39.971Z,101206.87
2019-06-08T09:35:09.524Z,101213.81
2019-06-08T09:37:38.708Z,101214.64
2019-06-08T09:40:08.135Z,101214.94
2019-06-08T09:42:37.229Z,101218.67
2019-06-08T09:45:09.040Z,101222.63
2019-06-08T09:47:38.407Z,101221.12
2019-06-08T09:50:09.205Z,101228.14
2019-06-08T09:52:40.942Z,101223.93
2019-06-08T09:55:10.020Z,101227.42
2019-06-08T09:57:39.257Z,101226.06
2019-06-08T10:00:17.868Z,101229.66
2019-06-08T10:02:40.302Z,101240.52
2019-06-08T10:05:09.424Z,101244.86
2019-06-08T10:07:38.982Z,101246.69
2019-06-08T10:10:09.681Z,101250.35
2019-06-08T10:12:40.966Z,101253.36
2019-06-08T10:15:10.462Z,101247.83
2019-06-08T10:17:39.613Z,101254.41
2019-06-08T10:20:10.245Z,101264.99
2019-06-08T10:22:39.489Z,101253.17
2019-06-08T10:25:11.247Z,101260.14
2019-06-08T10:27:39.800Z,101265.16
2019-06-08T10:30:10.371Z,101270.02
2019-06-08T10:32:39.643Z,101271.32
2019-06-08T10:35:10.391Z,101274.91
2019-06-08T10:37:39.721Z,101280.16
2019-06-08T10:40:09.634Z,101280.69
2019-06-08T10:42:40.235Z,101277.02
2019-06-08T10:45:13.109Z,101282.52
2019-06-08T10:47:40.575Z,101287.33
2019-06-08T10:50:15.132Z,101293.34
2019-06-08T10:52:40.965Z,101288.75
2019-06-08T10:55:12.189Z,101300.41
2019-06-08T10:57:41.611Z,101302.13
2019-06-08T11:00:20.147Z,101296.55
2019-06-08T11:02:42.294Z,101298.16
2019-06-08T11:05:13.873Z,101294.29
2019-06-08T11:07:42.161Z,101301.52
2019-06-08T11:10:12.490Z,101296.45
2019-06-08T11:12:41.804Z,101302.03
2019-06-08T11:15:11.855Z,101301.95
2019-06-08T11:17:41.051Z,101298.73
2019-06-08T11:20:13.017Z,101305.31
2019-06-08T11:22:41.025Z,101305.02
2019-06-08T11:25:15.979Z,101310.75
2019-06-08T11:27:40.851Z,101331.98
2019-06-08T11:30:20.122Z,101323.69
2019-06-08T11:32:40.956Z,101317.67
2019-06-08T11:35:12.387Z,101324.69
2019-06-08T11:37:41.308Z,101339.38
2019-06-08T11:40:12.730Z,101323.12
2019-06-08T11:42:42.168Z,101330.28
2019-06-08T11:45:13.270Z,101332.63
2019-06-08T11:47:42.496Z,101332.63
2019-06-08T11:50:13.380Z,101339.05
2019-06-08T11:52:42.512Z,101346.75
2019-06-08T11:55:13.071Z,101347.84
2019-06-08T11:57:43.765Z,101367.27
2019-06-08T12:00:27.274Z,101362.52
2019-06-08T12:02:48.673Z,101365.20
2019-06-08T12:05:18.156Z,101358.02
2019-06-08T12:07:48.033Z,101372.31
2019-06-08T12:10:17.786Z,101365.33
2019-06-08T12:12:47.021Z,101362.75
2019-06-08T12:15:18.136Z,101374.84
2019-06-08T12:17:48.238Z,101382.04
2019-06-08T12:20:20.652Z,101381.89
2019-06-08T12:22:48.425Z,101377.94
2019-06-08T12:25:17.453Z,101388.42
2019-06-08T12:27:48.679Z,101375.05
2019-06-08T12:30:25.650Z,101382.41
2019-06-08T12:32:48.058Z,101375.77
2019-06-08T12:35:18.108Z,101388.42
2019-06-08T12:37:48.358Z,101388.80
2019-06-08T12:40:19.551Z,101384.34
2019-06-08T12:42:49.398Z,101381.27
2019-06-08T12:45:20.354Z,101397.86
2019-06-08T12:47:49.513Z,101395.59
2019-06-08T12:50:19.951Z,101397.47
2019-06-08T12:52:49.068Z,101399.73
2019-06-08T12:55:24.308Z,101415.28
2019-06-08T12:57:51.674Z,101402.20
2019-06-08T13:00:21.689Z,101406.16
2019-06-08T13:02:50.942Z,101409.41
2019-06-08T13:05:22.789Z,101413.28
2019-06-08T13:07:51.025Z,101413.27
2019-06-08T13:10:23.999Z,101417.19
2019-06-08T13:12:51.212Z,101412.61
2019-06-08T13:15:22.033Z,101418.55
2019-06-08T13:17:51.130Z,101420.61
2019-06-08T13:20:22.544Z,101419.92
2019-06-08T13:22:51.686Z,101422.36
2019-06-08T13:25:36.083Z,101433.24
2019-06-08T13:27:51.316Z,101424.38
2019-06-08T13:30:25.875Z,101437.70
2019-06-08T13:32:51.255Z,101446.08
2019-06-08T13:35:22.344Z,101429.66
2019-06-08T13:37:51.119Z,101435.47
2019-06-08T13:40:23.268Z,101433.95
2019-06-08T13:42:51.223Z,101436.49
2019-06-08T13:45:23.101Z,101437.13
2019-06-08T13:47:51.287Z,101442.43
2019-06-08T13:50:22.140Z,101443.30
2019-06-08T13:52:51.344Z,101438.88
2019-06-08T13:55:36.306Z,101441.86
2019-06-08T13:57:51.141Z,101435.50
2019-06-08T14:00:28.244Z,101427.67
2019-06-08T14:02:57.883Z,101428.32
2019-06-08T14:05:31.619Z,101426.29
2019-06-08T14:08:00.908Z,101425.22
2019-06-08T14:10:38.828Z,101432.02
2019-06-08T14:13:09.349Z,101421.50
2019-06-08T14:15:38.613Z,101415.07
2019-06-08T14:18:09.128Z,101417.88
2019-06-08T14:20:38.926Z,101414.15
2019-06-08T14:23:09.347Z,101419.85
2019-06-08T14:25:49.994Z,101409.24
2019-06-08T14:28:09.467Z,101415.59
2019-06-08T14:30:38.663Z,101407.41
2019-06-08T14:33:08.923Z,101408.56
2019-06-08T14:35:38.684Z,101413.63
2019-06-08T14:38:08.598Z,101416.72
2019-06-08T14:40:37.739Z,101414.03
2019-06-08T14:43:10.445Z,101405.69
2019-06-08T14:45:37.876Z,101406.30
2019-06-08T14:48:06.999Z,101402.86
2019-06-08T14:50:40.353Z,101399.20
2019-06-08T14:53:08.467Z,101405.00
2019-06-08T14:55:38.645Z,101406.09
2019-06-08T14:58:08.719Z,101401.97
2019-06-08T15:00:39.065Z,101407.17
2019-06-08T15:03:08.792Z,101400.99
2019-06-08T15:05:38.815Z,101413.64
2019-06-08T15:08:08.798Z,101414.31
2019-06-08T15:10:38.871Z,101402.95
2019-06-08T15:13:08.921Z,101417.13
2019-06-08T15:15:38.859Z,101422.48
2019-06-08T15:18:11.051Z,101421.97
2019-06-08T15:20:39.666Z,101420.80
2019-06-08T15:23:09.280Z,101412.45
2019-06-08T15:25:38.982Z,101411.78
2019-06-08T15:28:08.844Z,101398.95
2019-06-08T15:30:38.869Z,101399.54
2019-06-08T15:33:09.197Z,101397.34
2019-06-08T15:35:38.922Z,101389.48
2019-06-08T15:38:08.896Z,101387.91
2019-06-08T15:40:38.926Z,101395.03
2019-06-08T15:43:09.233Z,101400.71
2019-06-08T15:45:38.968Z,101409.24
2019-06-08T15:48:08.888Z,101405.75
2019-06-08T15:50:38.082Z,101421.39
2019-06-08T15:53:08.367Z,101430.63
2019-06-08T15:55:38.335Z,101446.03
2019-06-08T15:58:08.925Z,101442.28
2019-06-08T16:00:38.982Z,101454.94
2019-06-08T16:03:08.970Z,101448.23
2019-06-08T16:05:39.017Z,101461.30
2019-06-08T16:08:09.141Z,101462.08
2019-06-08T16:10:39.015Z,101454.05
2019-06-08T16:13:09.053Z,101469.08
2019-06-08T16:15:39.110Z,101480.68
2019-06-08T16:18:09.297Z,101488.68
2019-06-08T16:20:39.132Z,101493.12
2019-06-08T16:23:09.000Z,101500.62
2019-06-08T16:25:39.264Z,101477.58
2019-06-08T16:28:09.008Z,101471.14
2019-06-08T16:30:39.440Z,101472.12
2019-06-08T16:33:09.054Z,101464.88
2019-06-08T16:35:39.914Z,101465.19
2019-06-08T16:38:09.115Z,101471.31
2019-06-08T16:40:40.426Z,101468.13
2019-06-08T16:43:09.606Z,101460.98
2019-06-08T16:45:39.600Z,101448.53
2019-06-08T16:48:09.206Z,101446.77
2019-06-08T16:50:39.135Z,101451.59
2019-06-08T16:53:09.379Z,101453.30
2019-06-08T16:55:39.214Z,101455.41
2019-06-08T16:58:09.626Z,101458.20
2019-06-08T17:00:42.140Z,101463.91
2019-06-08T17:03:10.241Z,101468.16
2019-06-08T17:05:39.321Z,101473.58
2019-06-08T17:08:09.233Z,101473.87
2019-06-08T17:10:39.241Z,101476.66
2019-06-08T17:13:11.303Z,101486.37
2019-06-08T17:15:40.457Z,101491.37
2019-06-08T17:18:09.552Z,101485.77
2019-06-08T17:20:40.556Z,101489.09
2019-06-08T17:23:09.697Z,101483.41
2019-06-08T17:25:40.761Z,101499.88
2019-06-08T17:28:10.112Z,101499.85
2019-06-08T17:30:39.622Z,101494.44
2019-06-08T17:33:09.613Z,101503.19
2019-06-08T17:35:39.874Z,101500.44
2019-06-08T17:38:09.329Z,101497.55
2019-06-08T17:40:40.108Z,101497.66
2019-06-08T17:43:09.378Z,101499.10
2019-06-08T17:45:40.721Z,101502.50
2019-06-08T17:48:10.195Z,101499.70
2019-06-08T17:50:39.400Z,101510.50
2019-06-08T17:53:09.682Z,101512.09
2019-06-08T17:55:39.605Z,101503.14
2019-06-08T17:58:09.780Z,101518.94
2019-06-08T18:00:39.575Z,101512.22
2019-06-08T18:03:09.875Z,101514.38
2019-06-08T18:05:42.476Z,101515.20
2019-06-08T18:08:10.656Z,101517.05
2019-06-08T18:10:41.477Z,101515.92
2019-06-08T18:13:10.524Z,101515.55
2019-06-08T18:15:41.701Z,101514.09
2019-06-08T18:18:10.776Z,101525.39
2019-06-08T18:20:42.038Z,101520.75
2019-06-08T18:23:10.539Z,101522.63
2019-06-08T18:25:40.607Z,101527.12
2019-06-08T18:28:13.454Z,101535.91
2019-06-08T18:30:43.470Z,101546.17
2019-06-08T18:33:12.069Z,101554.22
2019-06-08T18:35:42.719Z,101577.91
2019-06-08T18:38:11.868Z,101566.32
2019-06-08T18:40:42.031Z,101562.77
2019-06-08T18:43:11.931Z,101571.81
2019-06-08T18:45:42.757Z,101577.99
2019-06-08T18:48:11.825Z,101585.68
2019-06-08T18:50:42.231Z,101581.09
2019-06-08T18:53:11.887Z,101574.30
2019-06-08T18:55:43.622Z,101582.14
2019-06-08T18:58:20.581Z,101577.38
2019-06-08T19:00:44.897Z,101585.22
2019-06-08T19:03:13.161Z,101583.18
2019-06-08T19:05:45.437Z,101585.56
2019-06-08T19:08:13.921Z,101594.24
2019-06-08T19:10:44.042Z,101575.97
2019-06-08T19:13:14.619Z,101595.09
2019-06-08T19:15:46.454Z,101604.15
2019-06-08T19:18:14.853Z,101591.66
2019-06-08T19:20:47.023Z,101600.87
2019-06-08T19:23:14.652Z,101606.98
2019-06-08T19:25:46.750Z,101598.81
2019-06-08T19:28:14.437Z,101609.23
2019-06-08T19:30:45.961Z,101611.78
2019-06-08T19:33:14.250Z,101614.50
2019-06-08T19:35:43.909Z,101608.00
2019-06-08T19:38:12.963Z,101605.23
2019-06-08T19:40:42.716Z,101599.79
2019-06-08T19:43:12.032Z,101605.56
2019-06-08T19:45:42.442Z,101600.56
2019-06-08T19:48:11.666Z,101607.20
2019-06-08T19:50:41.346Z,101607.13
2019-06-08T19:53:10.589Z,101612.27
2019-06-08T19:55:41.089Z,101616.50
2019-06-08T19:58:10.325Z,101623.66
2019-06-08T20:00:40.595Z,101622.72
2019-06-08T20:03:10.061Z,101627.59
2019-06-08T20:05:41.141Z,101631.49
2019-06-08T20:08:10.633Z,101628.41
2019-06-08T20:10:39.654Z,101639.58
2019-06-08T20:13:08.993Z,101639.58
2019-06-08T20:15:40.682Z,101645.39
2019-06-08T20:18:08.841Z,101645.03
2019-06-08T20:20:38.262Z,101652.69
2019-06-08T20:23:09.561Z,101654.58
2019-06-08T20:25:38.230Z,101656.82
2019-06-08T20:28:07.949Z,101653.77
2019-06-08T20:30:37.457Z,101659.55
2019-06-08T20:33:08.209Z,101663.15
2019-06-08T20:35:37.743Z,101658.38
2019-06-08T20:38:08.300Z,101671.33
2019-06-08T20:40:38.292Z,101671.98
2019-06-08T20:43:07.543Z,101689.30
2019-06-08T20:45:37.472Z,101693.76
2019-06-08T20:48:07.014Z,101689.74
2019-06-08T20:50:37.813Z,101691.50
2019-06-08T20:53:08.423Z,101685.33
2019-06-08T20:55:40.503Z,101691.79
2019-06-08T20:58:08.433Z,101684.09
2019-06-08T21:00:37.884Z,101686.26
2019-06-08T21:03:08.236Z,101688.42
2019-06-08T21:05:37.531Z,101681.25
2019-06-08T21:08:08.375Z,101684.45
2019-06-08T21:10:37.921Z,101679.88
2019-06-08T21:13:07.383Z,101681.51
2019-06-08T21:15:38.171Z,101677.13
2019-06-08T21:18:07.968Z,101679.91
2019-06-08T21:20:37.813Z,101675.77
2019-06-08T21:23:08.156Z,101672.59
2019-06-08T21:25:37.597Z,101676.67
2019-06-08T21:28:07.738Z,101674.98
2019-06-08T21:30:37.805Z,101675.31
2019-06-08T21:33:08.364Z,101667.66
2019-06-08T21:35:37.470Z,101671.43
2019-06-08T21:38:20.313Z,101681.91
2019-06-08T21:40:37.640Z,101684.31
2019-06-08T21:43:08.176Z,101684.16
2019-06-08T21:45:38.127Z,101691.17
2019-06-08T21:48:07.601Z,101685.36
2019-06-08T21:50:37.251Z,101687.55
2019-06-08T21:53:07.789Z,101685.83
2019-06-08T21:55:38.032Z,101691.44
2019-06-08T21:58:08.036Z,101691.08
2019-06-08T22:00:42.934Z,101696.52
2019-06-08T22:03:08.860Z,101695.47
2019-06-08T22:05:37.929Z,101697.04
2019-06-08T22:08:08.000Z,101693.95
2019-06-08T22:10:37.693Z,101692.06
2019-06-08T22:13:08.739Z,101694.98
2019-06-08T22:15:38.063Z,101690.85
2019-06-08T22:18:08.072Z,101701.95
2019-06-08T22:20:38.294Z,101701.08
2019-06-08T22:23:07.557Z,101707.78
2019-06-08T22:25:38.714Z,101707.14
2019-06-08T22:28:07.432Z,101708.19
2019-06-08T22:30:42.670Z,101717.95
2019-06-08T22:33:07.190Z,101711.66
2019-06-08T22:35:37.305Z,101709.67
2019-06-08T22:38:08.399Z,101715.48
2019-06-08T22:40:37.253Z,101719.45
2019-06-08T22:43:08.026Z,101714.05
2019-06-08T22:45:37.572Z,101716.82
2019-06-08T22:48:08.249Z,101716.99
2019-06-08T22:50:38.245Z,101714.83
2019-06-08T22:53:08.041Z,101724.90
2019-06-08T22:55:38.234Z,101721.86
2019-06-08T22:58:07.797Z,101720.81
2019-06-08T23:00:51.328Z,101721.95
2019-06-08T23:03:08.594Z,101725.17
2019-06-08T23:05:38.035Z,101729.26
2019-06-08T23:08:09.409Z,101726.48
2019-06-08T23:10:38.275Z,101731.16
2019-06-08T23:13:08.533Z,101723.30
2019-06-08T23:15:38.145Z,101728.41
2019-06-08T23:18:09.456Z,101724.12
2019-06-08T23:20:38.229Z,101726.44
2019-06-08T23:23:08.904Z,101733.25
2019-06-08T23:25:38.161Z,101734.13
2019-06-08T23:28:09.503Z,101731.03
2019-06-08T23:30:38.411Z,101731.09
2019-06-08T23:33:11.345Z,101730.36
2019-06-08T23:36:08.025Z,101734.61
2019-06-08T23:38:09.642Z,101736.48
2019-06-08T23:40:38.580Z,101735.48
2019-06-08T23:43:08.268Z,101731.67
2019-06-08T23:45:37.944Z,101731.50
2019-06-08T23:48:08.627Z,101739.31
2019-06-08T23:50:37.998Z,101737.38
2019-06-08T23:53:09.033Z,101728.73
2019-06-08T23:55:37.921Z,101737.38
2019-06-08T23:58:09.459Z,101744.50
